Time,TemperatureF,DewpointF,PressureIn,WindDirection,WindDirectionDegrees,WindSpeedMPH,WindSpeedGustMPH,Humidity,HourlyPrecipIn,Conditions,Clouds,dailyrainin,SoftwareType,DateUTC
2013-08-13 00:23:00,77.0,72.0,30.09,ESE,109,3.0,5.0,83,-99.99,,,-99.99,,2013-08-13 04:23:00,
2013-08-13 01:22:00,76.0,72.0,30.07,SE,124,4.0,6.0,88,-99.99,,,-99.99,,2013-08-13 05:22:00,
2013-08-13 01:32:00,76.0,72.0,30.07,SE,124,4.0,6.0,88,-99.99,,,-99.99,,2013-08-13 05:32:00,
2013-08-13 01:52:00,77.0,73.0,30.07,SE,136,4.0,8.0,86,-99.99,,,-99.99,,2013-08-13 05:52:00,
2013-08-13 02:11:00,77.0,73.0,30.06,SE,126,5.0,7.0,86,-99.99,,,-99.99,,2013-08-13 06:11:00,
2013-08-13 02:21:00,77.0,73.0,30.06,SE,136,3.0,6.0,86,-99.99,,,-99.99,,2013-08-13 06:21:00,
2013-08-13 02:42:00,77.0,73.0,30.05,SE,141,3.0,5.0,87,-99.99,,,-99.99,,2013-08-13 06:42:00,
2013-08-13 02:53:00,76.0,72.0,30.05,SE,137,3.0,5.0,87,-99.99,,,-99.99,,2013-08-13 06:53:00,
2013-08-13 03:12:00,76.0,73.0,30.04,SE,129,4.0,5.0,88,-99.99,,,-99.99,,2013-08-13 07:12:00,
2013-08-13 03:21:00,76.0,72.0,30.04,SSE,167,2.0,4.0,88,-99.99,,,-99.99,,2013-08-13 07:21:00,
2013-08-13 03:52:00,75.0,72.0,30.04,SE,146,3.0,4.0,89,-99.99,,,-99.99,,2013-08-13 07:52:00,
2013-08-13 04:11:00,75.0,72.0,30.04,SE,145,4.0,6.0,90,-99.99,,,-99.99,,2013-08-13 08:11:00,
2013-08-13 04:22:00,75.0,72.0,30.04,ESE,112,1.0,3.0,89,-99.99,,,-99.99,,2013-08-13 08:22:00,
2013-08-13 04:32:00,75.0,72.0,30.04,ESE,112,1.0,3.0,89,-99.99,,,-99.99,,2013-08-13 08:32:00,
2013-08-13 04:52:00,74.0,71.0,30.04,NW,321,3.0,4.0,90,-99.99,,,-99.99,,2013-08-13 08:52:00,
2013-08-13 05:22:00,73.0,71.0,30.05,NNW,336,4.0,6.0,91,-99.99,,,-99.99,,2013-08-13 09:22:00,
2013-08-13 06:12:00,72.0,70.0,30.04,SE,140,2.0,4.0,92,-99.99,,,-99.99,,2013-08-13 10:12:00,
2013-08-13 06:23:00,72.0,70.0,30.04,SE,140,2.0,4.0,92,-99.99,,,-99.99,,2013-08-13 10:23:00,
2013-08-13 06:53:00,72.0,70.0,30.05,SE,125,2.0,3.0,92,-99.99,,,-99.99,,2013-08-13 10:53:00,
2013-08-13 07:11:00,72.0,69.0,30.05,East,85,1.0,2.0,92,-99.99,,,-99.99,,2013-08-13 11:11:00,
2013-08-13 07:22:00,72.0,69.0,30.05,East,85,1.0,2.0,92,-99.99,,,-99.99,,2013-08-13 11:22:00,
2013-08-13 07:42:00,72.0,70.0,30.05,NE,55,1.0,2.0,92,-99.99,,,-99.99,,2013-08-13 11:42:00,
2013-08-13 08:21:00,74.0,72.0,30.05,ESE,108,1.0,3.0,92,-99.99,,,-99.99,,2013-08-13 12:21:00,
2013-08-13 08:31:00,74.0,72.0,30.05,ESE,108,1.0,3.0,92,-99.99,,,-99.99,,2013-08-13 12:31:00,
2013-08-13 08:52:00,77.0,74.0,30.05,East,91,2.0,3.0,90,-99.99,,,-99.99,,2013-08-13 12:52:00,
2013-08-13 09:22:00,80.0,75.0,30.06,SSE,147,4.0,8.0,83,-99.99,,,-99.99,,2013-08-13 13:22:00,
2013-08-13 09:42:00,82.0,75.0,30.06,SE,144,5.0,8.0,78,-99.99,,,-99.99,,2013-08-13 13:42:00,
2013-08-13 10:22:00,84.0,75.0,30.07,South,183,5.0,7.0,73,-99.99,,,-99.99,,2013-08-13 14:22:00,
2013-08-13 10:32:00,84.0,75.0,30.07,South,183,5.0,7.0,73,-99.99,,,-99.99,,2013-08-13 14:32:00,
2013-08-13 10:52:00,85.0,74.0,30.06,SSW,201,4.0,9.0,68,-99.99,,,-99.99,,2013-08-13 14:52:00,
2013-08-13 11:22:00,86.0,74.0,30.06,South,185,6.0,9.0,66,-99.99,,,-99.99,,2013-08-13 15:22:00,
2013-08-13 11:30:00,88.0,70.0,30.07,SSE,165,4.0,7.0,55,-99.99,,,-99.99,,2013-08-13 15:30:00,
2013-08-13 11:35:00,86.0,74.0,30.06,South,185,6.0,9.0,66,-99.99,,,-99.99,,2013-08-13 15:35:00,
2013-08-13 11:54:00,87.0,70.0,30.07,South,177,4.0,6.0,57,-99.99,,,-99.99,,2013-08-13 15:54:00,
2013-08-13 12:13:00,88.0,70.0,30.07,SSE,165,4.0,7.0,55,-99.99,,,-99.99,,2013-08-13 16:13:00,
2013-08-13 12:24:00,88.0,70.0,30.07,SSE,165,4.0,7.0,55,-99.99,,,-99.99,,2013-08-13 16:24:00,
2013-08-13 12:54:00,89.0,71.0,30.06,WSW,242,5.0,8.0,54,-99.99,,,-99.99,,2013-08-13 16:54:00,
2013-08-13 13:27:00,89.0,69.0,30.05,SW,224,5.0,9.0,50,-99.99,,,-99.99,,2013-08-13 17:27:00,
2013-08-13 13:38:00,89.0,69.0,30.05,SW,224,5.0,9.0,50,-99.99,,,-99.99,,2013-08-13 17:38:00,
2013-08-13 13:46:00,-999.0,-99.9,30.04,SW,224,5.0,8.0,-999,-99.99,,,-99.99,,2013-08-13 17:46:00,
2013-08-13 13:56:00,90.0,69.0,30.04,SW,224,5.0,8.0,49,-99.99,,,-99.99,,2013-08-13 17:56:00,
2013-08-13 14:15:00,90.0,68.0,30.03,South,175,5.0,8.0,47,-99.99,,,-99.99,,2013-08-13 18:15:00,
2013-08-13 14:25:00,90.0,68.0,30.03,South,175,5.0,8.0,47,-99.99,,,-99.99,,2013-08-13 18:25:00,
2013-08-13 14:56:00,92.0,-99.9,30.03,SSE,151,4.0,8.0,37,-99.99,,,-99.99,,2013-08-13 18:56:00,
2013-08-13 15:25:00,93.0,62.0,30.02,SE,138,4.0,9.0,36,-99.99,,,-99.99,,2013-08-13 19:25:00,
2013-08-13 15:36:00,93.0,62.0,30.02,SE,138,4.0,9.0,36,-99.99,,,-99.99,,2013-08-13 19:36:00,
2013-08-13 15:55:00,93.0,64.0,30.01,SSW,211,4.0,8.0,39,-99.99,,,-99.99,,2013-08-13 19:55:00,
2013-08-13 16:22:00,94.0,64.0,30.00,SW,225,4.0,6.0,37,-99.99,,,-99.99,,2013-08-13 20:22:00,
2013-08-13 16:32:00,94.0,64.0,30.00,SW,225,4.0,6.0,37,-99.99,,,-99.99,,2013-08-13 20:32:00,
2013-08-13 16:53:00,93.0,65.0,29.99,SW,229,4.0,8.0,39,-99.99,,,-99.99,,2013-08-13 20:53:00,
2013-08-13 17:24:00,94.0,65.0,29.98,SW,231,2.0,7.0,37,-99.99,,,-99.99,,2013-08-13 21:24:00,
2013-08-13 17:34:00,94.0,65.0,29.98,SW,231,2.0,7.0,37,-99.99,,,-99.99,,2013-08-13 21:34:00,
2013-08-13 17:54:00,94.0,65.0,29.98,West,271,3.0,6.0,39,-99.99,,,-99.99,,2013-08-13 21:54:00,
2013-08-13 18:23:00,93.0,67.0,29.97,NE,44,6.0,9.0,42,-99.99,,,-99.99,,2013-08-13 22:23:00,
2013-08-13 18:57:00,93.0,68.0,29.97,ENE,64,7.0,48.0,43,-99.99,,,-99.99,,2013-08-13 22:57:00,
2013-08-13 19:26:00,92.0,67.0,29.96,ENE,69,4.0,6.0,44,-99.99,,,-99.99,,2013-08-13 23:26:00,
2013-08-13 19:36:00,92.0,67.0,29.96,ENE,69,4.0,6.0,44,-99.99,,,-99.99,,2013-08-13 23:36:00,
2013-08-13 19:57:00,91.0,68.0,29.95,ENE,67,4.0,5.0,46,-99.99,,,-99.99,,2013-08-13 23:57:00,
2013-08-13 20:22:00,90.0,71.0,29.95,ENE,70,3.0,4.0,53,-99.99,,,-99.99,,2013-08-14 00:22:00,
2013-08-13 20:32:00,90.0,71.0,29.95,ENE,70,3.0,4.0,53,-99.99,,,-99.99,,2013-08-14 00:32:00,
2013-08-13 20:52:00,86.0,72.0,29.97,ESE,113,4.0,5.0,62,-99.99,,,-99.99,,2013-08-14 00:52:00,
2013-08-13 21:11:00,84.0,74.0,29.98,ESE,117,10.0,15.0,69,-99.99,,,-99.99,,2013-08-14 01:11:00,
2013-08-13 21:21:00,84.0,74.0,29.98,ESE,117,10.0,15.0,69,-99.99,,,-99.99,,2013-08-14 01:21:00,
2013-08-13 21:32:00,84.0,74.0,29.98,ESE,117,10.0,15.0,69,-99.99,,,-99.99,,2013-08-14 01:32:00,
2013-08-13 21:52:00,83.0,74.0,29.99,SE,129,8.0,16.0,71,-99.99,,,-99.99,,2013-08-14 01:52:00,
2013-08-13 22:22:00,83.0,73.0,30.00,SE,139,7.0,11.0,71,-99.99,,,-99.99,,2013-08-14 02:22:00,
2013-08-13 22:32:00,83.0,73.0,30.00,SE,139,7.0,11.0,71,-99.99,,,-99.99,,2013-08-14 02:32:00,
2013-08-13 22:52:00,83.0,74.0,30.02,SE,139,8.0,12.0,72,-99.99,,,-99.99,,2013-08-14 02:52:00,
2013-08-13 23:22:00,83.0,74.0,30.02,SSE,155,9.0,15.0,74,-99.99,,,-99.99,,2013-08-14 03:22:00,
2013-08-13 23:43:00,81.0,74.0,30.02,SSE,155,6.0,9.0,77,-99.99,,,-99.99,,2013-08-14 03:43:00,